Time;durP1;ratioP1;P1;durP2;ratioP2;P2;SDS_P1;SDS_P2;PMS_P1;PMS_P2;Temp;Humidity;BMP_temperature;BMP_pressure;BME280_temperature;BME280_humidity;BME280_pressure;Samples;Min_cycle;Max_cycle;Signal;HPM_P1;HPM_P2
2021/10/26 00:00:00;;;;;;;23.05;16.27;;;10.70;94.60;;;;;;5009748;28;20388;-69
2021/10/26 00:02:26;;;;;;;27.20;16.73;;;10.70;94.50;;;;;;5007096;28;20084;-70
2021/10/26 00:04:52;;;;;;;23.75;16.58;;;10.70;94.60;;;;;;5029956;28;20522;-72
2021/10/26 00:07:17;;;;;;;25.88;17.40;;;10.60;94.50;;;;;;5005634;28;20477;-73
2021/10/26 00:09:43;;;;;;;23.88;16.65;;;10.50;94.50;;;;;;5013814;28;20145;-70
2021/10/26 00:12:09;;;;;;;25.10;16.33;;;10.50;94.50;;;;;;5004417;28;20099;-70
2021/10/26 00:14:34;;;;;;;20.25;16.45;;;10.50;94.50;;;;;;5008026;28;20029;-70
2021/10/26 00:17:01;;;;;;;25.60;16.77;;;10.40;94.50;;;;;;5006423;28;20053;-71
2021/10/26 00:19:27;;;;;;;25.83;17.83;;;10.40;94.50;;;;;;5006297;28;20133;-70
2021/10/26 00:21:52;;;;;;;27.17;17.33;;;10.40;94.60;;;;;;5007714;28;21375;-69
2021/10/26 00:24:18;;;;;;;27.95;17.13;;;10.30;94.60;;;;;;5022870;28;20037;-70
2021/10/26 00:26:44;;;;;;;24.83;16.40;;;10.30;94.60;;;;;;5008230;28;20129;-70
2021/10/26 00:29:10;;;;;;;26.27;17.65;;;10.30;94.60;;;;;;5013158;28;20041;-70
2021/10/26 00:31:35;;;;;;;28.77;17.52;;;10.20;94.70;;;;;;5007817;28;20029;-72
2021/10/26 00:34:01;;;;;;;25.58;17.88;;;10.20;94.70;;;;;;5012486;28;20556;-70
2021/10/26 00:36:27;;;;;;;27.88;16.67;;;10.20;94.70;;;;;;5006260;28;20108;-70
2021/10/26 00:38:53;;;;;;;24.80;17.63;;;10.20;94.70;;;;;;5006552;28;20060;-71
2021/10/26 00:41:19;;;;;;;22.83;17.13;;;10.20;94.70;;;;;;5006364;28;20029;-71
2021/10/26 00:43:45;;;;;;;26.75;18.15;;;10.20;94.70;;;;;;5012567;28;20477;-69
2021/10/26 00:46:11;;;;;;;26.63;18.75;;;10.20;94.70;;;;;;5013994;28;20102;-71
2021/10/26 00:48:37;;;;;;;25.73;18.15;;;10.10;94.80;;;;;;5014545;28;20041;-70
2021/10/26 00:51:07;;;;;;;26.17;17.20;;;10.10;94.80;;;;;;5013972;28;20557;-70
2021/10/26 00:53:33;;;;;;;27.23;17.25;;;10.10;94.80;;;;;;5012118;28;20030;-71
2021/10/26 00:55:59;;;;;;;22.90;17.73;;;10.10;94.80;;;;;;5014030;28;20066;-71
2021/10/26 00:58:24;;;;;;;29.83;17.52;;;10.10;94.80;;;;;;5012863;28;20059;-69
2021/10/26 01:00:50;;;;;;;24.88;17.30;;;10.10;94.90;;;;;;5015357;28;20084;-70
2021/10/26 01:03:16;;;;;;;25.67;17.25;;;10.10;94.80;;;;;;5011717;28;20125;-71
2021/10/26 01:05:42;;;;;;;27.40;16.75;;;10.00;94.80;;;;;;5012466;28;20117;-70
2021/10/26 01:08:08;;;;;;;22.20;15.63;;;10.00;94.90;;;;;;5029237;28;20139;-70
2021/10/26 01:10:34;;;;;;;26.45;15.90;;;10.00;94.90;;;;;;5013150;28;20129;-70
2021/10/26 01:13:02;;;;;;;25.23;16.35;;;10.00;94.90;;;;;;5013570;28;20580;-72
2021/10/26 01:15:28;;;;;;;26.90;15.95;;;10.00;94.90;;;;;;5011731;28;20153;-71
2021/10/26 01:17:54;;;;;;;25.85;15.93;;;9.90;94.90;;;;;;5010013;28;20264;-69
2021/10/26 01:20:20;;;;;;;21.40;15.75;;;9.90;95.00;;;;;;5017152;28;20496;-70
2021/10/26 01:22:45;;;;;;;21.60;14.40;;;9.90;94.90;;;;;;5013142;28;20038;-70
2021/10/26 01:25:13;;;;;;;24.05;14.70;;;9.90;95.00;;;;;;5009339;28;21003;-70
2021/10/26 01:27:47;;;;;;;20.55;14.73;;;9.80;94.90;;;;;;5013567;28;20037;-70
2021/10/26 01:30:14;;;;;;;24.67;15.02;;;9.80;94.90;;;;;;5016424;28;20108;-70
2021/10/26 01:32:40;;;;;;;25.27;15.98;;;9.80;94.90;;;;;;5009871;28;20109;-70
2021/10/26 01:35:06;;;;;;;22.55;14.88;;;9.80;95.00;;;;;;5012764;28;20118;-70
2021/10/26 01:37:33;;;;;;;21.25;14.38;;;9.80;95.00;;;;;;5009905;28;20345;-71
2021/10/26 01:39:59;;;;;;;22.70;14.15;;;9.80;94.90;;;;;;5014580;28;20134;-70
2021/10/26 01:42:25;;;;;;;22.98;14.50;;;9.80;94.90;;;;;;5017550;28;20472;-69
2021/10/26 01:44:51;;;;;;;23.65;14.15;;;9.70;94.90;;;;;;5012765;28;20060;-70
2021/10/26 01:47:17;;;;;;;23.83;13.95;;;9.70;94.90;;;;;;5011294;28;20472;-71
2021/10/26 01:49:43;;;;;;;25.83;14.52;;;9.70;94.80;;;;;;5016703;28;20376;-70
2021/10/26 01:52:10;;;;;;;20.75;13.98;;;9.70;94.90;;;;;;5011704;28;20480;-70
2021/10/26 01:54:37;;;;;;;20.13;13.52;;;9.60;94.80;;;;;;5011732;28;20045;-69
2021/10/26 01:57:05;;;;;;;20.25;12.80;;;9.70;94.90;;;;;;5009338;28;20072;-71
2021/10/26 01:59:32;;;;;;;19.05;12.27;;;9.60;94.90;;;;;;5013638;28;20488;-70
2021/10/26 02:01:58;;;;;;;18.42;12.07;;;9.60;95.00;;;;;;5008811;28;20030;-69
2021/10/26 02:04:24;;;;;;;20.27;12.77;;;9.60;94.90;;;;;;5006462;28;20030;-71
2021/10/26 02:06:50;;;;;;;21.05;13.18;;;9.60;94.90;;;;;;5024481;28;20062;-70
2021/10/26 02:09:16;;;;;;;19.23;12.10;;;9.60;95.00;;;;;;5005958;28;20066;-70
2021/10/26 02:11:41;;;;;;;22.80;11.80;;;9.60;95.00;;;;;;5010981;28;20034;-70
2021/10/26 02:14:07;;;;;;;19.73;11.65;;;9.60;95.00;;;;;;5008682;28;20084;-69
2021/10/26 02:16:33;;;;;;;16.67;10.23;;;9.50;95.00;;;;;;5008027;28;20033;-70
2021/10/26 02:18:59;;;;;;;24.10;11.63;;;9.50;95.00;;;;;;5011528;28;20041;-71
2021/10/26 02:21:24;;;;;;;21.30;10.52;;;9.60;95.10;;;;;;5006389;28;20026;-69
2021/10/26 02:23:51;;;;;;;17.83;11.23;;;9.60;95.10;;;;;;5012110;28;20522;-69
2021/10/26 02:26:16;;;;;;;18.52;10.70;;;9.60;95.20;;;;;;5014803;28;20029;-70
2021/10/26 02:28:42;;;;;;;18.13;10.88;;;9.60;95.20;;;;;;5012654;28;20475;-70
2021/10/26 02:31:08;;;;;;;18.60;11.00;;;9.70;95.30;;;;;;5006970;28;20040;-70
2021/10/26 02:33:34;;;;;;;19.83;10.23;;;9.70;95.20;;;;;;5008213;28;20022;-70
2021/10/26 02:36:00;;;;;;;18.70;10.07;;;9.70;95.20;;;;;;5008027;28;20034;-70
2021/10/26 02:38:25;;;;;;;18.20;10.93;;;9.70;95.20;;;;;;5007147;28;20508;-69
2021/10/26 02:40:51;;;;;;;17.08;9.45;;;9.60;95.10;;;;;;5015191;28;20104;-69
2021/10/26 02:43:18;;;;;;;15.40;10.75;;;9.60;95.10;;;;;;5007077;28;20025;-70
2021/10/26 02:45:43;;;;;;;18.48;10.32;;;9.60;95.10;;;;;;5010315;28;20030;-70
2021/10/26 02:48:09;;;;;;;17.90;11.80;;;9.60;95.10;;;;;;5010706;28;20420;-70
2021/10/26 02:50:35;;;;;;;19.95;11.45;;;9.50;95.10;;;;;;5008300;28;20053;-72
2021/10/26 02:53:00;;;;;;;21.40;11.77;;;9.40;95.10;;;;;;5010137;28;20037;-71
2021/10/26 02:55:26;;;;;;;19.40;10.73;;;9.50;95.10;;;;;;5008549;28;20405;-69
2021/10/26 02:57:52;;;;;;;21.27;11.77;;;9.40;95.10;;;;;;5009709;28;20029;-71
2021/10/26 03:00:18;;;;;;;16.70;11.90;;;9.40;95.10;;;;;;5008344;28;20037;-71
2021/10/26 03:02:43;;;;;;;21.65;10.95;;;9.40;95.20;;;;;;5013402;28;20040;-73
2021/10/26 03:05:09;;;;;;;20.48;12.20;;;9.30;95.10;;;;;;5009875;28;20038;-69
2021/10/26 03:07:39;;;;;;;23.98;12.13;;;9.40;95.10;;;;;;5013004;28;20109;-70
2021/10/26 03:10:06;;;;;;;18.95;11.82;;;9.40;95.10;;;;;;5011370;28;20030;-70
2021/10/26 03:12:32;;;;;;;25.15;12.63;;;9.30;95.10;;;;;;5008040;28;20353;-70
2021/10/26 03:14:57;;;;;;;19.25;12.15;;;9.30;95.10;;;;;;5008954;28;20467;-70
2021/10/26 03:17:25;;;;;;;21.63;12.27;;;9.30;95.10;;;;;;5006450;28;20037;-70
2021/10/26 03:19:51;;;;;;;20.08;11.98;;;9.30;95.10;;;;;;5006675;28;20058;-70
2021/10/26 03:22:17;;;;;;;19.58;11.27;;;9.20;95.10;;;;;;5007014;28;20029;-70
2021/10/26 03:24:42;;;;;;;23.35;12.25;;;9.20;95.10;;;;;;5007385;28;20187;-70
2021/10/26 03:27:08;;;;;;;19.10;11.70;;;9.20;95.10;;;;;;5008507;28;20077;-70
2021/10/26 03:29:34;;;;;;;20.60;12.43;;;9.20;95.20;;;;;;5016216;28;20029;-73
2021/10/26 03:31:59;;;;;;;20.45;12.52;;;9.20;95.10;;;;;;5008491;28;20033;-69
2021/10/26 03:34:25;;;;;;;22.75;12.82;;;9.20;95.10;;;;;;5008758;28;20041;-71
2021/10/26 03:36:51;;;;;;;21.02;12.05;;;9.20;95.20;;;;;;5011189;28;20037;-70
2021/10/26 03:39:17;;;;;;;19.42;11.55;;;9.20;95.10;;;;;;5005161;28;20035;-70
2021/10/26 03:41:42;;;;;;;23.30;13.05;;;9.10;95.10;;;;;;5007156;28;20473;-72
2021/10/26 03:44:08;;;;;;;23.75;13.25;;;9.10;95.10;;;;;;5010797;28;20030;-70
2021/10/26 03:46:35;;;;;;;24.77;13.68;;;9.10;95.10;;;;;;5006084;28;20476;-70
2021/10/26 03:49:01;;;;;;;24.63;12.95;;;9.10;95.10;;;;;;5020912;28;20132;-71
2021/10/26 03:51:27;;;;;;;22.77;13.88;;;9.10;95.10;;;;;;5007665;28;20033;-70
2021/10/26 03:53:53;;;;;;;17.60;12.10;;;9.10;95.10;;;;;;5008201;28;20030;-70
2021/10/26 03:56:18;;;;;;;23.52;12.63;;;9.10;95.10;;;;;;5023242;28;20469;-71
2021/10/26 03:58:44;;;;;;;22.00;12.63;;;9.10;95.10;;;;;;5008866;28;20045;-70
2021/10/26 04:01:11;;;;;;;22.70;12.82;;;9.00;95.10;;;;;;5005301;28;20053;-71
2021/10/26 04:03:37;;;;;;;20.58;12.65;;;9.00;95.10;;;;;;5009267;28;20022;-69
2021/10/26 04:06:08;;;;;;;28.02;13.90;;;9.00;95.10;;;;;;5008075;28;20034;-70
2021/10/26 04:13:44;;;;;;;24.23;13.45;;;9.00;95.10;;;;;;5008119;28;20114;-70
2021/10/26 04:16:10;;;;;;;21.08;13.95;;;8.90;95.10;;;;;;5006613;28;20172;-69
2021/10/26 04:18:37;;;;;;;20.67;13.45;;;8.90;95.10;;;;;;5007409;28;20487;-70
2021/10/26 04:21:02;;;;;;;23.33;12.93;;;8.90;95.10;;;;;;5006477;28;20084;-70
2021/10/26 04:23:29;;;;;;;18.23;13.05;;;8.90;95.10;;;;;;5006794;28;20058;-69
2021/10/26 04:25:55;;;;;;;25.58;14.20;;;8.90;95.10;;;;;;5006540;28;20091;-69
2021/10/26 04:28:21;;;;;;;19.40;11.93;;;8.80;95.10;;;;;;5006031;28;20044;-69
2021/10/26 04:30:47;;;;;;;25.33;14.50;;;8.90;95.00;;;;;;5007548;28;20062;-71
2021/10/26 04:33:14;;;;;;;21.70;13.20;;;8.90;95.00;;;;;;5004624;28;20108;-69
2021/10/26 04:35:39;;;;;;;24.05;13.82;;;8.80;95.00;;;;;;5006419;28;20040;-72
2021/10/26 04:38:05;;;;;;;20.92;13.55;;;8.80;95.00;;;;;;5004371;28;20030;-70
2021/10/26 04:40:32;;;;;;;22.95;13.40;;;8.80;95.10;;;;;;4999694;28;20051;-69
2021/10/26 04:42:59;;;;;;;21.05;12.98;;;8.80;95.10;;;;;;5004139;28;20037;-70
2021/10/26 04:45:25;;;;;;;23.83;13.70;;;8.80;95.10;;;;;;5002676;28;20156;-70
2021/10/26 04:47:51;;;;;;;22.95;12.77;;;8.80;95.10;;;;;;5019089;28;20025;-71
2021/10/26 04:50:18;;;;;;;22.88;13.57;;;8.80;95.10;;;;;;5004047;28;20030;-69
2021/10/26 04:52:43;;;;;;;22.77;12.55;;;8.70;95.10;;;;;;5003189;28;20033;-69
2021/10/26 04:55:10;;;;;;;23.65;12.73;;;8.70;95.10;;;;;;5003903;28;20037;-69
2021/10/26 04:57:35;;;;;;;17.27;12.05;;;8.70;95.20;;;;;;5006923;28;20030;-71
2021/10/26 05:00:04;;;;;;;19.70;13.13;;;8.70;95.20;;;;;;5006382;28;20050;-71
2021/10/26 05:02:29;;;;;;;22.67;13.73;;;8.60;95.20;;;;;;5002578;28;20030;-69
2021/10/26 05:04:55;;;;;;;22.15;13.63;;;8.70;95.20;;;;;;5023793;28;20038;-70
2021/10/26 05:07:21;;;;;;;22.45;12.48;;;8.70;95.20;;;;;;5008079;28;20533;-70
2021/10/26 05:09:46;;;;;;;24.77;14.13;;;8.70;95.20;;;;;;5020608;28;20522;-70
2021/10/26 05:12:12;;;;;;;22.92;13.55;;;8.60;95.20;;;;;;5005467;28;20065;-73
2021/10/26 05:14:39;;;;;;;25.52;14.38;;;8.60;95.30;;;;;;5004823;28;20057;-70
2021/10/26 05:17:05;;;;;;;27.95;14.02;;;8.60;95.30;;;;;;5023780;28;20037;-69
2021/10/26 05:19:32;;;;;;;24.67;13.68;;;8.60;95.30;;;;;;5008015;28;20483;-68
2021/10/26 05:21:58;;;;;;;23.65;13.65;;;8.60;95.30;;;;;;5002944;28;20450;-73
2021/10/26 05:24:25;;;;;;;22.48;13.27;;;8.60;95.30;;;;;;5001038;28;20093;-70
2021/10/26 05:26:52;;;;;;;20.05;12.18;;;8.60;95.20;;;;;;5010793;28;20033;-68
2021/10/26 05:29:18;;;;;;;21.40;13.68;;;8.60;95.30;;;;;;5014726;28;20167;-70
2021/10/26 05:31:44;;;;;;;22.42;13.07;;;8.60;95.30;;;;;;5012323;28;20069;-69
2021/10/26 05:34:10;;;;;;;25.50;13.88;;;8.60;95.30;;;;;;5011023;28;20034;-69
2021/10/26 05:36:37;;;;;;;24.85;14.57;;;8.60;95.40;;;;;;5012262;28;20041;-70
2021/10/26 05:39:05;;;;;;;22.95;13.85;;;8.60;95.40;;;;;;5023280;28;20030;-68
2021/10/26 05:41:33;;;;;;;25.00;14.68;;;8.60;95.40;;;;;;5013320;28;20163;-70
2021/10/26 05:43:58;;;;;;;26.95;14.82;;;8.60;95.40;;;;;;5016043;28;20037;-68
2021/10/26 05:46:24;;;;;;;27.20;14.18;;;8.60;95.40;;;;;;5024471;28;20041;-68
2021/10/26 05:48:50;;;;;;;26.95;15.10;;;8.60;95.40;;;;;;5014981;28;20050;-69
2021/10/26 05:51:16;;;;;;;24.38;14.75;;;8.60;95.40;;;;;;5010670;28;20121;-69
2021/10/26 05:53:42;;;;;;;35.67;15.90;;;8.60;95.50;;;;;;5015910;28;20124;-69
2021/10/26 05:56:07;;;;;;;26.45;15.48;;;8.60;95.50;;;;;;5009606;28;20550;-69
2021/10/26 05:58:33;;;;;;;34.10;16.45;;;8.60;95.50;;;;;;5011127;28;20061;-69
2021/10/26 06:00:59;;;;;;;31.83;17.25;;;8.60;95.50;;;;;;5006130;28;20041;-69
2021/10/26 06:03:25;;;;;;;27.90;15.98;;;8.60;95.50;;;;;;5012958;28;20458;-68
2021/10/26 06:05:51;;;;;;;25.80;16.33;;;8.60;95.60;;;;;;5011785;28;20033;-70
2021/10/26 06:08:17;;;;;;;24.70;15.20;;;8.70;95.60;;;;;;5008978;28;20038;-69
2021/10/26 06:10:47;;;;;;;27.60;16.17;;;8.70;95.60;;;;;;5009699;28;20042;-69
2021/10/26 06:13:19;;;;;;;25.75;15.32;;;8.70;95.60;;;;;;5009604;28;20038;-69
2021/10/26 06:15:45;;;;;;;26.42;14.77;;;8.60;95.60;;;;;;5010526;28;20390;-70
2021/10/26 06:18:10;;;;;;;29.13;16.13;;;8.60;95.60;;;;;;5008950;28;20162;-70
2021/10/26 06:20:36;;;;;;;30.00;15.73;;;8.70;95.60;;;;;;5009059;28;20080;-73
2021/10/26 06:23:02;;;;;;;25.55;15.60;;;8.70;95.60;;;;;;5019518;28;20038;-72
2021/10/26 06:25:29;;;;;;;30.70;14.88;;;8.70;95.70;;;;;;5014319;28;20077;-71
2021/10/26 06:27:55;;;;;;;32.33;15.57;;;8.70;95.60;;;;;;5014401;28;20042;-71
2021/10/26 06:30:21;;;;;;;27.15;15.48;;;8.80;95.70;;;;;;5008317;28;20049;-74
2021/10/26 06:32:46;;;;;;;25.88;15.40;;;8.80;95.70;;;;;;5011016;28;20072;-71
2021/10/26 06:35:12;;;;;;;24.88;15.38;;;8.80;95.60;;;;;;5010022;28;20425;-69
2021/10/26 06:37:45;;;;;;;26.38;15.43;;;8.90;95.70;;;;;;5024674;28;20498;-68
2021/10/26 06:40:15;;;;;;;28.38;14.75;;;8.90;95.70;;;;;;4994183;28;20057;-70
2021/10/26 06:42:41;;;;;;;23.52;14.70;;;8.90;95.70;;;;;;4997448;28;20034;-72
2021/10/26 06:45:08;;;;;;;33.10;16.45;;;9.00;95.70;;;;;;4993688;28;20085;-71
2021/10/26 06:47:34;;;;;;;22.75;15.05;;;9.00;95.70;;;;;;5009056;28;20040;-68
2021/10/26 06:49:59;;;;;;;26.98;15.88;;;9.10;95.70;;;;;;4993158;28;20038;-71
2021/10/26 06:52:25;;;;;;;27.52;16.23;;;9.10;95.70;;;;;;4992010;28;20365;-72
2021/10/26 06:54:51;;;;;;;28.55;14.77;;;9.10;95.70;;;;;;4990839;28;20196;-71
2021/10/26 06:57:20;;;;;;;24.30;14.93;;;9.20;95.70;;;;;;4993938;28;20489;-74
2021/10/26 06:59:46;;;;;;;26.77;14.40;;;9.30;95.60;;;;;;4992283;28;20092;-72
2021/10/26 07:02:12;;;;;;;24.52;14.60;;;9.40;95.60;;;;;;4991943;28;20692;-71
2021/10/26 07:04:37;;;;;;;25.60;14.73;;;9.50;95.50;;;;;;4992755;28;20245;-73
2021/10/26 07:07:03;;;;;;;25.88;15.85;;;9.50;95.50;;;;;;4990597;28;20677;-69
2021/10/26 07:09:29;;;;;;;27.33;15.18;;;9.60;95.40;;;;;;4991933;28;20068;-71
2021/10/26 07:11:55;;;;;;;22.65;13.75;;;9.60;95.40;;;;;;4992037;28;20109;-72
2021/10/26 07:14:21;;;;;;;27.40;14.90;;;9.70;95.20;;;;;;4993271;28;20037;-71
2021/10/26 07:16:47;;;;;;;28.42;14.00;;;9.70;95.10;;;;;;4992865;28;20481;-70
2021/10/26 07:19:12;;;;;;;27.88;14.75;;;9.70;95.00;;;;;;4991288;28;20050;-72
2021/10/26 07:21:38;;;;;;;27.63;14.57;;;9.70;94.80;;;;;;4992132;28;20509;-71
2021/10/26 07:24:05;;;;;;;27.58;15.27;;;9.70;94.80;;;;;;4991202;28;20061;-69
2021/10/26 07:26:33;;;;;;;21.13;14.52;;;9.80;94.80;;;;;;4992827;28;20046;-72
2021/10/26 07:28:59;;;;;;;25.45;13.55;;;9.80;94.80;;;;;;4990538;28;20248;-71
2021/10/26 07:31:25;;;;;;;22.70;13.48;;;9.80;94.70;;;;;;4991087;28;20060;-72
2021/10/26 07:33:53;;;;;;;25.20;13.85;;;9.80;94.60;;;;;;4988065;28;20030;-73
2021/10/26 07:36:20;;;;;;;25.15;13.38;;;9.90;94.60;;;;;;4991939;28;20033;-71
2021/10/26 07:38:46;;;;;;;22.67;13.32;;;9.90;94.50;;;;;;4993573;28;20107;-70
2021/10/26 07:41:11;;;;;;;24.45;13.10;;;9.90;94.50;;;;;;5004735;28;20477;-71
2021/10/26 07:43:38;;;;;;;22.75;13.43;;;10.00;94.50;;;;;;4993575;28;20036;-70
2021/10/26 07:46:05;;;;;;;26.17;13.95;;;10.10;94.30;;;;;;4993031;28;20034;-73
2021/10/26 07:48:31;;;;;;;26.60;12.80;;;10.10;94.30;;;;;;4993605;28;20034;-71
2021/10/26 07:50:59;;;;;;;26.08;13.90;;;10.10;94.20;;;;;;4989899;28;20042;-69
2021/10/26 07:53:29;;;;;;;20.30;12.45;;;10.10;94.10;;;;;;4989713;28;20045;-72
2021/10/26 07:55:57;;;;;;;22.00;12.77;;;10.20;94.10;;;;;;4991802;28;20022;-70
2021/10/26 07:58:25;;;;;;;23.05;13.32;;;10.20;93.90;;;;;;4992280;28;20033;-72
2021/10/26 08:00:51;;;;;;;23.98;13.10;;;10.30;93.80;;;;;;4992216;28;20041;-71
2021/10/26 08:03:17;;;;;;;19.48;11.93;;;10.40;93.80;;;;;;4990411;28;20381;-70
2021/10/26 08:05:43;;;;;;;23.88;14.23;;;10.40;93.60;;;;;;4992032;28;20034;-71
2021/10/26 08:08:10;;;;;;;23.05;12.80;;;10.40;93.60;;;;;;4990962;28;20026;-70
2021/10/26 08:10:36;;;;;;;27.48;13.35;;;10.50;93.50;;;;;;4993573;28;20025;-72
2021/10/26 08:13:02;;;;;;;24.73;14.02;;;10.60;93.40;;;;;;4988074;28;20548;-70
2021/10/26 08:15:28;;;;;;;21.13;13.73;;;10.70;93.40;;;;;;5003442;28;20034;-69
2021/10/26 08:17:53;;;;;;;24.83;13.27;;;10.70;93.20;;;;;;5006295;28;20373;-68
2021/10/26 08:20:19;;;;;;;22.42;13.95;;;10.80;93.00;;;;;;5005473;28;20458;-72
2021/10/26 08:22:45;;;;;;;23.10;13.45;;;10.90;92.90;;;;;;5004684;28;20045;-68
2021/10/26 08:25:49;;;;;;;27.50;13.93;;;11.00;92.60;;;;;;5007304;28;20040;-68
2021/10/26 08:28:08;;;;;;;24.13;14.27;;;11.10;92.40;;;;;;5001233;28;20030;-69
2021/10/26 08:30:45;;;;;;;19.65;12.80;;;11.40;92.30;;;;;;5005624;28;20037;-70
2021/10/26 08:35:56;;;;;;;21.65;13.13;;;11.60;91.40;;;;;;5004790;28;20037;-72
2021/10/26 08:38:21;;;;;;;21.55;12.02;;;11.80;90.70;;;;;;5005877;28;20042;-68
2021/10/26 08:40:48;;;;;;;19.33;11.57;;;11.90;90.20;;;;;;5003327;28;20887;-70
2021/10/26 08:43:26;;;;;;;25.23;11.82;;;12.10;89.60;;;;;;5005546;28;20077;-68
2021/10/26 08:45:53;;;;;;;21.83;11.82;;;12.20;89.00;;;;;;5003616;28;20030;-70
2021/10/26 08:48:21;;;;;;;18.83;10.23;;;12.30;88.50;;;;;;5002895;28;20042;-68
2021/10/26 08:51:00;;;;;;;20.08;10.70;;;12.50;88.20;;;;;;5003477;28;20026;-73
2021/10/26 08:53:30;;;;;;;17.17;10.07;;;12.60;87.70;;;;;;5006471;28;20030;-70
2021/10/26 08:55:58;;;;;;;19.95;10.45;;;12.80;87.60;;;;;;4997379;28;20093;-70
2021/10/26 08:58:26;;;;;;;17.17;10.55;;;12.90;86.20;;;;;;5003279;28;20033;-71
2021/10/26 09:00:55;;;;;;;16.48;10.05;;;13.10;86.10;;;;;;5005896;28;20465;-68
2021/10/26 09:03:24;;;;;;;22.33;9.98;;;13.20;85.30;;;;;;5005721;28;20051;-69
2021/10/26 09:05:52;;;;;;;20.45;10.73;;;13.40;84.70;;;;;;5009581;28;20053;-68
2021/10/26 09:08:22;;;;;;;16.45;9.50;;;13.50;83.70;;;;;;5007227;28;20078;-69
2021/10/26 09:10:53;;;;;;;16.58;10.38;;;13.50;84.20;;;;;;5010038;28;20389;-68
2021/10/26 09:19:27;;;;;;;18.00;10.52;;;13.10;85.00;;;;;;4960373;28;20477;-69
2021/10/26 09:21:59;;;;;;;16.05;10.15;;;12.90;85.30;;;;;;5007374;28;20053;-71
2021/10/26 09:24:26;;;;;;;20.42;10.07;;;12.90;85.80;;;;;;5007285;28;20034;-71
2021/10/26 09:26:55;;;;;;;21.55;11.00;;;13.10;85.70;;;;;;5009003;28;20050;-69
2021/10/26 09:29:42;;;;;;;18.55;11.10;;;13.30;85.50;;;;;;5021871;28;21038;-69
2021/10/26 09:32:43;;;;;;;16.35;9.68;;;13.40;84.70;;;;;;5009739;28;20022;-68
2021/10/26 09:35:12;;;;;;;17.30;10.50;;;13.60;84.50;;;;;;5008438;28;20091;-68
2021/10/26 09:37:45;;;;;;;20.25;10.20;;;13.80;84.10;;;;;;5007271;28;20105;-70
2021/10/26 09:40:12;;;;;;;18.92;10.75;;;13.70;83.30;;;;;;5005937;28;20037;-68
2021/10/26 09:42:50;;;;;;;18.17;11.20;;;13.70;83.90;;;;;;5007020;28;20041;-69
2021/10/26 09:45:24;;;;;;;16.75;10.13;;;13.60;84.00;;;;;;5006586;28;20038;-70
2021/10/26 09:47:52;;;;;;;;;;;13.80;83.90;;;;;;5007934;28;20053;-70
2021/10/26 09:50:17;;;;;;;19.00;11.48;;;13.90;83.50;;;;;;5023311;28;20136;-70
2021/10/26 09:52:47;;;;;;;22.33;11.35;;;14.10;83.20;;;;;;5005146;28;20159;-74
2021/10/26 09:55:20;;;;;;;17.83;11.05;;;14.20;83.40;;;;;;5009096;28;20036;-70
2021/10/26 09:57:48;;;;;;;17.83;10.07;;;14.20;82.70;;;;;;5008157;28;20191;-71
2021/10/26 10:00:24;;;;;;;19.88;10.68;;;14.30;82.40;;;;;;5008358;28;20056;-70
2021/10/26 10:03:25;;;;;;;26.70;11.85;;;14.50;82.90;;;;;;5006725;28;20048;-69
2021/10/26 10:05:52;;;;;;;17.42;9.52;;;14.60;82.30;;;;;;5007171;28;20038;-73
2021/10/26 10:08:50;;;;;;;16.90;9.63;;;14.60;82.20;;;;;;5004815;28;20049;-70
2021/10/26 10:11:20;;;;;;;22.05;10.30;;;15.00;81.70;;;;;;4978494;28;20065;-69
2021/10/26 10:13:55;;;;;;;16.52;9.00;;;15.10;80.70;;;;;;5007343;28;20046;-69
2021/10/26 10:16:23;;;;;;;16.85;9.30;;;15.00;80.20;;;;;;5007127;28;21924;-69
2021/10/26 10:18:52;;;;;;;21.00;10.20;;;14.90;80.80;;;;;;5000803;28;20037;-70
2021/10/26 10:21:28;;;;;;;18.08;10.65;;;14.90;81.10;;;;;;5006459;28;20048;-70
2021/10/26 10:23:56;;;;;;;19.45;10.77;;;14.80;81.40;;;;;;5005846;28;20042;-70
2021/10/26 10:26:30;;;;;;;19.83;10.18;;;14.90;81.40;;;;;;5004155;28;20045;-70
2021/10/26 10:29:00;;;;;;;18.23;10.25;;;14.80;81.10;;;;;;5003989;28;20129;-69
2021/10/26 10:31:26;;;;;;;20.17;11.05;;;14.80;81.50;;;;;;5001556;28;20034;-69
2021/10/26 10:33:54;;;;;;;20.25;10.85;;;14.80;82.00;;;;;;5004400;28;20045;-68
2021/10/26 10:36:22;;;;;;;17.13;10.35;;;14.90;81.70;;;;;;5001362;28;20492;-70
2021/10/26 10:38:49;;;;;;;17.23;10.35;;;15.00;81.30;;;;;;5000539;28;20425;-70
2021/10/26 10:41:28;;;;;;;17.17;10.25;;;14.90;81.10;;;;;;5002395;28;20362;-70
2021/10/26 10:44:00;;;;;;;18.48;10.40;;;14.80;81.60;;;;;;5018994;28;20072;-69
2021/10/26 10:46:47;;;;;;;19.83;9.80;;;14.80;81.30;;;;;;4998861;28;20038;-70
2021/10/26 10:49:26;;;;;;;15.80;9.20;;;14.60;81.60;;;;;;5000089;28;20030;-72
2021/10/26 10:51:56;;;;;;;20.65;9.75;;;14.60;82.10;;;;;;5000551;28;20091;-72
2021/10/26 10:54:48;;;;;;;15.95;9.73;;;14.70;82.40;;;;;;4999240;28;20121;-70
2021/10/26 10:57:32;;;;;;;17.23;9.68;;;14.80;81.60;;;;;;5016513;28;20041;-71
2021/10/26 11:00:16;;;;;;;20.15;9.18;;;14.90;81.70;;;;;;5000934;28;20168;-72
2021/10/26 11:02:45;;;;;;;17.38;8.90;;;15.00;81.70;;;;;;5002722;28;20118;-70
2021/10/26 11:05:36;;;;;;;19.17;8.32;;;15.10;81.40;;;;;;4998994;28;20133;-69
2021/10/26 11:08:07;;;;;;;17.23;8.80;;;15.30;80.70;;;;;;5001596;28;20038;-70
2021/10/26 11:10:51;;;;;;;17.23;8.48;;;15.40;81.00;;;;;;5002096;28;20052;-73
2021/10/26 11:13:21;;;;;;;17.27;8.85;;;15.50;79.90;;;;;;5016641;28;20038;-70
2021/10/26 11:15:49;;;;;;;16.50;8.82;;;15.60;79.90;;;;;;4999470;28;20029;-70
2021/10/26 11:18:33;;;;;;;15.70;8.77;;;15.60;79.10;;;;;;5001695;28;20496;-69
2021/10/26 11:20:59;;;;;;;14.47;8.23;;;15.60;78.90;;;;;;5005491;28;20037;-70
2021/10/26 11:23:33;;;;;;;18.20;9.07;;;15.50;78.40;;;;;;5009163;28;20288;-71
2021/10/26 11:26:01;;;;;;;16.17;8.50;;;15.40;79.50;;;;;;5006541;28;20038;-70
2021/10/26 11:28:28;;;;;;;14.73;9.25;;;15.50;79.50;;;;;;4999796;28;20054;-68
2021/10/26 11:31:01;;;;;;;17.08;7.93;;;15.50;79.20;;;;;;4999662;28;20041;-70
2021/10/26 11:33:28;;;;;;;15.73;8.20;;;15.40;79.70;;;;;;5000856;28;20504;-69
2021/10/26 11:36:06;;;;;;;15.10;7.57;;;15.30;79.60;;;;;;5016926;28;20084;-69
2021/10/26 11:38:36;;;;;;;14.48;7.18;;;15.30;79.70;;;;;;5017942;28;20057;-69
2021/10/26 11:41:03;;;;;;;16.02;8.20;;;15.20;80.10;;;;;;5015565;28;20397;-70
2021/10/26 11:43:40;;;;;;;14.55;7.40;;;15.20;80.10;;;;;;5021382;28;20038;-71
2021/10/26 11:46:07;;;;;;;14.45;7.05;;;15.30;80.30;;;;;;5006288;28;20041;-70
2021/10/26 11:48:42;;;;;;;17.70;7.80;;;15.50;80.10;;;;;;5008220;28;20077;-69
2021/10/26 11:51:23;;;;;;;12.30;6.95;;;15.60;79.80;;;;;;5003431;28;20048;-69
2021/10/26 11:53:59;;;;;;;15.25;7.15;;;15.60;79.30;;;;;;5005116;28;20038;-68
2021/10/26 11:56:37;;;;;;;15.15;7.05;;;15.60;79.40;;;;;;5011207;28;20046;-71
2021/10/26 11:59:12;;;;;;;16.50;7.25;;;15.60;79.20;;;;;;5012523;28;20117;-69
2021/10/26 12:01:53;;;;;;;18.95;6.90;;;15.60;79.40;;;;;;5001977;28;20121;-69
2021/10/26 12:04:31;;;;;;;14.23;6.63;;;15.60;80.00;;;;;;5020611;28;20075;-69
2021/10/26 12:07:00;;;;;;;15.18;6.30;;;15.70;79.60;;;;;;5003837;28;20056;-70
2021/10/26 12:09:27;;;;;;;13.98;5.93;;;15.60;79.60;;;;;;5005079;28;20503;-69
2021/10/26 12:11:55;;;;;;;15.95;8.95;;;15.60;79.50;;;;;;5020584;28;20067;-70
2021/10/26 12:14:41;;;;;;;23.48;14.27;;;15.60;79.80;;;;;;5004341;28;20125;-70
2021/10/26 12:17:16;;;;;;;21.80;13.52;;;15.60;79.90;;;;;;5004222;28;20053;-68
2021/10/26 12:20:10;;;;;;;20.33;11.20;;;15.60;79.90;;;;;;5004992;28;20056;-68
2021/10/26 12:22:43;;;;;;;14.73;5.93;;;15.80;79.80;;;;;;5006423;28;20436;-68
2021/10/26 12:25:42;;;;;;;11.15;5.72;;;16.00;79.10;;;;;;5002664;28;20033;-71
2021/10/26 12:28:10;;;;;;;15.73;6.20;;;16.00;78.80;;;;;;5004215;28;20077;-68
2021/10/26 12:30:40;;;;;;;14.05;5.45;;;16.00;78.60;;;;;;5003588;28;20038;-70
2021/10/26 12:33:07;;;;;;;13.73;5.80;;;15.90;78.70;;;;;;5005444;28;20400;-68
2021/10/26 12:35:54;;;;;;;13.95;5.60;;;15.90;78.70;;;;;;5009165;28;20034;-70
2021/10/26 12:38:32;;;;;;;14.43;5.78;;;15.90;79.20;;;;;;5020816;28;23072;-69
2021/10/26 12:41:07;;;;;;;14.95;5.38;;;16.00;79.30;;;;;;5005836;28;20529;-69
2021/10/26 12:43:33;;;;;;;13.13;4.93;;;16.00;79.10;;;;;;5018285;28;20049;-69
2021/10/26 12:46:20;;;;;;;13.90;5.18;;;16.10;79.40;;;;;;5004620;28;20046;-70
2021/10/26 12:48:46;;;;;;;10.43;4.63;;;16.10;78.50;;;;;;5004377;28;20129;-70
2021/10/26 12:51:19;;;;;;;13.15;3.88;;;16.20;77.70;;;;;;5006461;28;20131;-69
2021/10/26 12:53:45;;;;;;;11.43;3.75;;;16.20;77.70;;;;;;5009148;28;20030;-68